LNI981 WAAA-WADD
Flight info
| Callsign | LNI981 |
|---|---|
| Flight time | 1h 13m |
| Altitude | 30000 |
| Route | LIPOT W41 PEDET |
| Aircraft | A333/H-SDE3GHIJ2J3J5M1RVWXY/LB2D1 |
Departure
| Time | 2026-05-05 02:42 |
|---|---|
| Airport | Sultan Hasanuddin International Airport (WAAA) |
Arrival
| Time | 2026-05-05 03:55 |
|---|---|
| Airport | Denpasar I Gusti Ngurah Rai International Airport (WADD) |
| Time | Latitude | Longitude | Altitude | Speed | Heading |
|---|---|---|---|---|---|
| 2026-05-05 02:31 | -5.07910 | 119.54688 | 45 ft | 0 kts | 299° |
| 2026-05-05 02:35 | -5.07914 | 119.54696 | 44 ft | 2 kts | 299° |
| 2026-05-05 02:35 | -5.07920 | 119.54705 | 42 ft | 2 kts | 297° |
| 2026-05-05 02:36 | -5.07924 | 119.54715 | 44 ft | 2 kts | 295° |
| 2026-05-05 02:36 | -5.07929 | 119.54724 | 42 ft | 2 kts | 289° |
| 2026-05-05 02:36 | -5.07931 | 119.54735 | 41 ft | 2 kts | 258° |
| 2026-05-05 02:36 | -5.07928 | 119.54745 | 40 ft | 2 kts | 229° |
| 2026-05-05 02:37 | -5.07920 | 119.54752 | 40 ft | 2 kts | 211° |
| 2026-05-05 02:37 | -5.07917 | 119.54754 | 40 ft | 0 kts | 212° |
| 2026-05-05 02:38 | -5.07923 | 119.54750 | 45 ft | 5 kts | 211° |
| 2026-05-05 02:38 | -5.07991 | 119.54733 | 45 ft | 14 kts | 155° |
| 2026-05-05 02:38 | -5.08061 | 119.54831 | 45 ft | 21 kts | 131° |
| 2026-05-05 02:39 | -5.08136 | 119.54830 | 44 ft | 10 kts | 207° |
| 2026-05-05 02:39 | -5.08199 | 119.54794 | 45 ft | 13 kts | 210° |
| 2026-05-05 02:39 | -5.08336 | 119.54715 | 45 ft | 32 kts | 209° |
| 2026-05-05 02:39 | -5.08559 | 119.54587 | 45 ft | 38 kts | 209° |
| 2026-05-05 02:40 | -5.08788 | 119.54455 | 45 ft | 38 kts | 210° |
| 2026-05-05 02:40 | -5.09001 | 119.54331 | 45 ft | 16 kts | 209° |
| 2026-05-05 02:40 | -5.09049 | 119.54304 | 45 ft | 15 kts | 209° |
| 2026-05-05 02:40 | -5.09154 | 119.54286 | 45 ft | 18 kts | 155° |
| 2026-05-05 02:41 | -5.09212 | 119.54393 | 45 ft | 17 kts | 88° |
| 2026-05-05 02:41 | -5.09171 | 119.54439 | 46 ft | 0 kts | 30° |
| 2026-05-05 02:41 | -5.09014 | 119.54530 | 48 ft | 59 kts | 30° |
| 2026-05-05 02:42 | -5.08469 | 119.54843 | 45 ft | 121 kts | 30° |
| 2026-05-05 02:42 | -5.07579 | 119.55357 | 83 ft | 170 kts | 31° |
| 2026-05-05 02:42 | -5.06568 | 119.55948 | 876 ft | 165 kts | 28° |
| 2026-05-05 02:42 | -5.05423 | 119.56210 | 1448 ft | 181 kts | 358° |
| 2026-05-05 02:43 | -5.04108 | 119.56085 | 1826 ft | 200 kts | 353° |
| 2026-05-05 02:43 | -5.02631 | 119.55948 | 2165 ft | 226 kts | 355° |
| 2026-05-05 02:43 | -5.00969 | 119.55860 | 2547 ft | 251 kts | 358° |
| 2026-05-05 02:43 | -4.99163 | 119.55827 | 3084 ft | 265 kts | 360° |
| 2026-05-05 02:44 | -4.97287 | 119.55818 | 3742 ft | 272 kts | 357° |
| 2026-05-05 02:44 | -4.95471 | 119.55266 | 4534 ft | 279 kts | 327° |
| 2026-05-05 02:44 | -4.94277 | 119.53753 | 5357 ft | 283 kts | 290° |
| 2026-05-05 02:44 | -4.94099 | 119.51802 | 6199 ft | 284 kts | 259° |
| 2026-05-05 02:45 | -4.94627 | 119.49903 | 7062 ft | 283 kts | 253° |
| 2026-05-05 02:45 | -4.95071 | 119.47980 | 7912 ft | 284 kts | 261° |
| 2026-05-05 02:45 | -4.95237 | 119.46007 | 8786 ft | 285 kts | 268° |
| 2026-05-05 02:45 | -4.95303 | 119.43997 | 9522 ft | 292 kts | 268° |
| 2026-05-05 02:46 | -4.95348 | 119.41963 | 10203 ft | 300 kts | 269° |
| 2026-05-05 02:46 | -4.95356 | 119.39804 | 10563 ft | 319 kts | 270° |
| 2026-05-05 02:46 | -4.95333 | 119.37500 | 10852 ft | 339 kts | 270° |
| 2026-05-05 02:46 | -4.95289 | 119.35082 | 11228 ft | 354 kts | 271° |
| 2026-05-05 02:47 | -4.95236 | 119.32591 | 11821 ft | 361 kts | 271° |
| 2026-05-05 02:47 | -4.95177 | 119.30053 | 12482 ft | 365 kts | 271° |
| 2026-05-05 02:47 | -4.95115 | 119.27488 | 13168 ft | 369 kts | 271° |
| 2026-05-05 02:47 | -4.95052 | 119.24901 | 13830 ft | 374 kts | 271° |
| 2026-05-05 02:48 | -4.94986 | 119.22276 | 14429 ft | 377 kts | 271° |
| 2026-05-05 02:48 | -4.94920 | 119.19631 | 15035 ft | 381 kts | 271° |
| 2026-05-05 02:48 | -4.94853 | 119.16961 | 15628 ft | 385 kts | 271° |
| 2026-05-05 02:48 | -4.94786 | 119.14295 | 16209 ft | 388 kts | 271° |
| 2026-05-05 02:49 | -4.94718 | 119.11579 | 16806 ft | 392 kts | 271° |
| 2026-05-05 02:49 | -4.94648 | 119.08826 | 17390 ft | 396 kts | 271° |
| 2026-05-05 02:49 | -4.94578 | 119.06055 | 17954 ft | 399 kts | 271° |
| 2026-05-05 02:49 | -4.94507 | 119.03258 | 18474 ft | 403 kts | 271° |
| 2026-05-05 02:50 | -4.94435 | 119.00432 | 18945 ft | 406 kts | 271° |
| 2026-05-05 02:50 | -4.94363 | 118.97586 | 19399 ft | 410 kts | 271° |
| 2026-05-05 02:50 | -4.94290 | 118.94716 | 19847 ft | 413 kts | 271° |
| 2026-05-05 02:50 | -4.94216 | 118.91820 | 20299 ft | 417 kts | 271° |
| 2026-05-05 02:51 | -4.94142 | 118.88933 | 20745 ft | 420 kts | 271° |
| 2026-05-05 02:51 | -4.94067 | 118.85994 | 21175 ft | 423 kts | 271° |
| 2026-05-05 02:51 | -4.93991 | 118.83026 | 21612 ft | 427 kts | 271° |
| 2026-05-05 02:51 | -4.93915 | 118.80041 | 22036 ft | 430 kts | 271° |
| 2026-05-05 02:52 | -4.93889 | 118.77024 | 22448 ft | 433 kts | 266° |
| 2026-05-05 02:52 | -4.94471 | 118.74073 | 22838 ft | 435 kts | 248° |
| 2026-05-05 02:52 | -4.95917 | 118.71417 | 23242 ft | 435 kts | 233° |
| 2026-05-05 02:52 | -4.97795 | 118.69019 | 23624 ft | 438 kts | 229° |
| 2026-05-05 02:53 | -4.99745 | 118.66651 | 23957 ft | 440 kts | 229° |
| 2026-05-05 02:53 | -5.01668 | 118.64300 | 24288 ft | 443 kts | 229° |
| 2026-05-05 02:53 | -5.03626 | 118.61880 | 24645 ft | 445 kts | 230° |
| 2026-05-05 02:53 | -5.05573 | 118.59454 | 24989 ft | 448 kts | 230° |
| 2026-05-05 02:54 | -5.07526 | 118.57010 | 25345 ft | 450 kts | 230° |
| 2026-05-05 02:54 | -5.09489 | 118.54546 | 25690 ft | 452 kts | 230° |
| 2026-05-05 02:54 | -5.11434 | 118.52103 | 26044 ft | 455 kts | 230° |
| 2026-05-05 02:54 | -5.13415 | 118.49611 | 26388 ft | 457 kts | 230° |
| 2026-05-05 02:55 | -5.15403 | 118.47110 | 26732 ft | 460 kts | 230° |
| 2026-05-05 02:55 | -5.17400 | 118.44596 | 27079 ft | 462 kts | 230° |
| 2026-05-05 02:55 | -5.19406 | 118.42071 | 27417 ft | 464 kts | 230° |
| 2026-05-05 02:55 | -5.21424 | 118.39530 | 27755 ft | 467 kts | 230° |
| 2026-05-05 02:56 | -5.23495 | 118.37012 | 28089 ft | 468 kts | 226° |
| 2026-05-05 02:56 | -5.25883 | 118.34759 | 28418 ft | 469 kts | 217° |
| 2026-05-05 02:56 | -5.28469 | 118.32757 | 28743 ft | 471 kts | 215° |
| 2026-05-05 02:56 | -5.31107 | 118.30798 | 29076 ft | 473 kts | 214° |
| 2026-05-05 02:57 | -5.33767 | 118.28830 | 29416 ft | 475 kts | 214° |
| 2026-05-05 02:57 | -5.36433 | 118.26854 | 29734 ft | 478 kts | 214° |
| 2026-05-05 02:57 | -5.39074 | 118.24892 | 29894 ft | 475 kts | 214° |
| 2026-05-05 02:57 | -5.41695 | 118.22941 | 29908 ft | 464 kts | 214° |
| 2026-05-05 02:58 | -5.44275 | 118.21020 | 29907 ft | 459 kts | 214° |
| 2026-05-05 02:58 | -5.49399 | 118.17204 | 29909 ft | 458 kts | 214° |
| 2026-05-05 02:59 | -5.54520 | 118.13396 | 29908 ft | 458 kts | 213° |
| 2026-05-05 02:59 | -5.60080 | 118.10372 | 29908 ft | 454 kts | 202° |
| 2026-05-05 03:00 | -5.65868 | 118.07841 | 29908 ft | 454 kts | 201° |
| 2026-05-05 03:00 | -5.71630 | 118.05329 | 29915 ft | 454 kts | 201° |
| 2026-05-05 03:01 | -5.77432 | 118.02791 | 29907 ft | 453 kts | 201° |
| 2026-05-05 03:01 | -5.83216 | 118.00258 | 29910 ft | 453 kts | 201° |
| 2026-05-05 03:02 | -5.88955 | 117.97743 | 29909 ft | 453 kts | 201° |
| 2026-05-05 03:02 | -5.94738 | 117.95208 | 29913 ft | 453 kts | 201° |
| 2026-05-05 03:03 | -6.00518 | 117.92674 | 29909 ft | 453 kts | 201° |
| 2026-05-05 03:03 | -6.05321 | 117.90567 | 29909 ft | 453 kts | 202° |
| 2026-05-05 03:04 | -6.08708 | 117.89081 | 29907 ft | 452 kts | 201° |
| 2026-05-05 03:04 | -6.12544 | 117.87398 | 29910 ft | 451 kts | 202° |
| 2026-05-05 03:05 | -6.19268 | 117.84448 | 29908 ft | 451 kts | 202° |
| 2026-05-05 03:05 | -6.24062 | 117.82343 | 29911 ft | 451 kts | 202° |
| 2026-05-05 03:06 | -6.29814 | 117.79818 | 29908 ft | 451 kts | 201° |
| 2026-05-05 03:06 | -6.35539 | 117.77304 | 29907 ft | 451 kts | 202° |
| 2026-05-05 03:07 | -6.41294 | 117.74777 | 29909 ft | 451 kts | 202° |
| 2026-05-05 03:07 | -6.47057 | 117.72245 | 29905 ft | 451 kts | 202° |
| 2026-05-05 03:08 | -6.52807 | 117.69718 | 29913 ft | 451 kts | 202° |
| 2026-05-05 03:08 | -6.58517 | 117.67208 | 29910 ft | 451 kts | 202° |
| 2026-05-05 03:09 | -6.64277 | 117.64677 | 29907 ft | 451 kts | 202° |
| 2026-05-05 03:09 | -6.69520 | 117.61241 | 29907 ft | 455 kts | 224° |
| 2026-05-05 03:10 | -6.73688 | 117.56427 | 29914 ft | 457 kts | 228° |
| 2026-05-05 03:10 | -6.77749 | 117.51562 | 29908 ft | 455 kts | 228° |
| 2026-05-05 03:11 | -6.81833 | 117.46695 | 29909 ft | 455 kts | 228° |
| 2026-05-05 03:11 | -6.85380 | 117.42477 | 29905 ft | 455 kts | 228° |
| 2026-05-05 03:12 | -6.86266 | 117.41424 | 29903 ft | 455 kts | 228° |
| 2026-05-05 03:12 | -6.90359 | 117.36559 | 29910 ft | 455 kts | 228° |
| 2026-05-05 03:13 | -6.94451 | 117.31695 | 29912 ft | 455 kts | 228° |
| 2026-05-05 03:13 | -6.98542 | 117.26831 | 29907 ft | 455 kts | 229° |
| 2026-05-05 03:14 | -7.02605 | 117.21999 | 29906 ft | 455 kts | 228° |
| 2026-05-05 03:14 | -7.06693 | 117.17136 | 29913 ft | 455 kts | 228° |
| 2026-05-05 03:15 | -7.10795 | 117.12255 | 29897 ft | 458 kts | 229° |
| 2026-05-05 03:15 | -7.12850 | 117.09808 | 29580 ft | 455 kts | 229° |
| 2026-05-05 03:15 | -7.14881 | 117.07390 | 29121 ft | 450 kts | 229° |
| 2026-05-05 03:15 | -7.16891 | 117.04996 | 28648 ft | 445 kts | 229° |
| 2026-05-05 03:16 | -7.18859 | 117.02653 | 28201 ft | 441 kts | 229° |
| 2026-05-05 03:16 | -7.20831 | 117.00304 | 27746 ft | 438 kts | 229° |
| 2026-05-05 03:16 | -7.22792 | 116.97968 | 27315 ft | 435 kts | 229° |
| 2026-05-05 03:16 | -7.24741 | 116.95647 | 26891 ft | 433 kts | 229° |
| 2026-05-05 03:17 | -7.26679 | 116.93337 | 26466 ft | 430 kts | 229° |
| 2026-05-05 03:17 | -7.28605 | 116.91042 | 26083 ft | 428 kts | 228° |
| 2026-05-05 03:17 | -7.30518 | 116.88762 | 25734 ft | 426 kts | 228° |
| 2026-05-05 03:17 | -7.32433 | 116.86479 | 25378 ft | 424 kts | 229° |
| 2026-05-05 03:18 | -7.34332 | 116.84215 | 25073 ft | 422 kts | 228° |
| 2026-05-05 03:18 | -7.36220 | 116.81964 | 24843 ft | 420 kts | 228° |
| 2026-05-05 03:18 | -7.38101 | 116.79721 | 24630 ft | 419 kts | 228° |
| 2026-05-05 03:18 | -7.39978 | 116.77482 | 24405 ft | 418 kts | 228° |
| 2026-05-05 03:19 | -7.43699 | 116.73043 | 23980 ft | 415 kts | 228° |
| 2026-05-05 03:19 | -7.45563 | 116.70819 | 23719 ft | 415 kts | 228° |
| 2026-05-05 03:19 | -7.47424 | 116.68599 | 23367 ft | 413 kts | 229° |
| 2026-05-05 03:20 | -7.49273 | 116.66391 | 23011 ft | 410 kts | 228° |
| 2026-05-05 03:20 | -7.51106 | 116.64216 | 22907 ft | 406 kts | 227° |
| 2026-05-05 03:20 | -7.52974 | 116.62074 | 22788 ft | 406 kts | 227° |
| 2026-05-05 03:20 | -7.54822 | 116.59977 | 22679 ft | 404 kts | 227° |
| 2026-05-05 03:21 | -7.56688 | 116.57861 | 22561 ft | 403 kts | 227° |
| 2026-05-05 03:21 | -7.58555 | 116.55744 | 22447 ft | 403 kts | 227° |
| 2026-05-05 03:21 | -7.60421 | 116.53626 | 22322 ft | 402 kts | 227° |
| 2026-05-05 03:21 | -7.62276 | 116.51521 | 22196 ft | 401 kts | 227° |
| 2026-05-05 03:22 | -7.64126 | 116.49420 | 22094 ft | 400 kts | 227° |
| 2026-05-05 03:22 | -7.65973 | 116.47322 | 21972 ft | 399 kts | 227° |
| 2026-05-05 03:22 | -7.67815 | 116.45228 | 21852 ft | 399 kts | 227° |
| 2026-05-05 03:22 | -7.69658 | 116.43134 | 21746 ft | 398 kts | 227° |
| 2026-05-05 03:23 | -7.71470 | 116.41074 | 21646 ft | 397 kts | 227° |
| 2026-05-05 03:23 | -7.73304 | 116.38990 | 21504 ft | 397 kts | 227° |
| 2026-05-05 03:23 | -7.75133 | 116.36910 | 21404 ft | 396 kts | 227° |
| 2026-05-05 03:23 | -7.76962 | 116.34830 | 21283 ft | 395 kts | 227° |
| 2026-05-05 03:24 | -7.78787 | 116.32755 | 21167 ft | 395 kts | 227° |
| 2026-05-05 03:24 | -7.80601 | 116.30679 | 21064 ft | 394 kts | 229° |
| 2026-05-05 03:24 | -7.82149 | 116.28399 | 20936 ft | 395 kts | 243° |
| 2026-05-05 03:24 | -7.83000 | 116.25773 | 20821 ft | 396 kts | 260° |
| 2026-05-05 03:25 | -7.83265 | 116.23011 | 20709 ft | 395 kts | 266° |
| 2026-05-05 03:25 | -7.83387 | 116.20330 | 20595 ft | 395 kts | 267° |
| 2026-05-05 03:25 | -7.83464 | 116.18415 | 20515 ft | 394 kts | 266° |
| 2026-05-05 03:26 | -7.83578 | 116.15654 | 20402 ft | 394 kts | 266° |
| 2026-05-05 03:26 | -7.83699 | 116.12890 | 20284 ft | 394 kts | 266° |
| 2026-05-05 03:26 | -7.83823 | 116.10168 | 20173 ft | 394 kts | 266° |
| 2026-05-05 03:26 | -7.83951 | 116.07408 | 20059 ft | 393 kts | 266° |
| 2026-05-05 03:27 | -7.84080 | 116.04658 | 19945 ft | 392 kts | 266° |
| 2026-05-05 03:27 | -7.84210 | 116.01914 | 19833 ft | 391 kts | 266° |
| 2026-05-05 03:27 | -7.84339 | 115.99170 | 19713 ft | 390 kts | 266° |
| 2026-05-05 03:27 | -7.84469 | 115.96434 | 19603 ft | 390 kts | 266° |
| 2026-05-05 03:28 | -7.84598 | 115.93702 | 19478 ft | 389 kts | 266° |
| 2026-05-05 03:28 | -7.84727 | 115.90977 | 19376 ft | 389 kts | 266° |
| 2026-05-05 03:28 | -7.84855 | 115.88259 | 19260 ft | 388 kts | 266° |
| 2026-05-05 03:28 | -7.84983 | 115.85546 | 19145 ft | 387 kts | 266° |
| 2026-05-05 03:29 | -7.85109 | 115.82866 | 19042 ft | 387 kts | 266° |
| 2026-05-05 03:29 | -7.85237 | 115.80159 | 18925 ft | 386 kts | 266° |
| 2026-05-05 03:29 | -7.85364 | 115.77451 | 18815 ft | 385 kts | 266° |
| 2026-05-05 03:29 | -7.85491 | 115.74757 | 18707 ft | 384 kts | 266° |
| 2026-05-05 03:30 | -7.85617 | 115.72068 | 18590 ft | 384 kts | 266° |
| 2026-05-05 03:30 | -7.85743 | 115.69374 | 18485 ft | 384 kts | 266° |
| 2026-05-05 03:30 | -7.85868 | 115.66688 | 18375 ft | 383 kts | 266° |
| 2026-05-05 03:30 | -7.85993 | 115.64008 | 18259 ft | 382 kts | 266° |
| 2026-05-05 03:31 | -7.86118 | 115.61335 | 18143 ft | 381 kts | 266° |
| 2026-05-05 03:31 | -7.86242 | 115.58668 | 18024 ft | 380 kts | 266° |
| 2026-05-05 03:31 | -7.86364 | 115.56037 | 17917 ft | 380 kts | 266° |
| 2026-05-05 03:31 | -7.86487 | 115.53376 | 17800 ft | 379 kts | 266° |
| 2026-05-05 03:32 | -7.86611 | 115.50719 | 17693 ft | 379 kts | 266° |
| 2026-05-05 03:32 | -7.86733 | 115.48067 | 17580 ft | 378 kts | 266° |
| 2026-05-05 03:32 | -7.86856 | 115.45413 | 17477 ft | 378 kts | 266° |
| 2026-05-05 03:32 | -7.86978 | 115.42760 | 17363 ft | 378 kts | 266° |
| 2026-05-05 03:33 | -7.87101 | 115.40112 | 17248 ft | 378 kts | 266° |
| 2026-05-05 03:33 | -7.87221 | 115.37498 | 17148 ft | 377 kts | 266° |
| 2026-05-05 03:33 | -7.87343 | 115.34832 | 17045 ft | 376 kts | 266° |
| 2026-05-05 03:33 | -7.87463 | 115.32228 | 16927 ft | 376 kts | 266° |
| 2026-05-05 03:34 | -7.87583 | 115.29598 | 16813 ft | 376 kts | 266° |
| 2026-05-05 03:34 | -7.87704 | 115.26960 | 16706 ft | 375 kts | 266° |
| 2026-05-05 03:34 | -7.87824 | 115.24335 | 16594 ft | 374 kts | 266° |
| 2026-05-05 03:34 | -7.87944 | 115.21717 | 16484 ft | 373 kts | 266° |
| 2026-05-05 03:35 | -7.88065 | 115.19108 | 16383 ft | 373 kts | 266° |
| 2026-05-05 03:35 | -7.88123 | 115.18298 | 16345 ft | 373 kts | 263° |
| 2026-05-05 03:35 | -7.88660 | 115.15868 | 16231 ft | 371 kts | 247° |
| 2026-05-05 03:35 | -7.89874 | 115.13589 | 16139 ft | 369 kts | 236° |
| 2026-05-05 03:36 | -7.91310 | 115.11450 | 16041 ft | 368 kts | 234° |
| 2026-05-05 03:36 | -7.92775 | 115.09338 | 15924 ft | 367 kts | 234° |
| 2026-05-05 03:36 | -7.94236 | 115.07230 | 15822 ft | 366 kts | 234° |
| 2026-05-05 03:36 | -7.95693 | 115.05117 | 15716 ft | 366 kts | 234° |
| 2026-05-05 03:37 | -7.97122 | 115.03036 | 15605 ft | 365 kts | 234° |
| 2026-05-05 03:37 | -7.98566 | 115.00928 | 15505 ft | 365 kts | 234° |
| 2026-05-05 03:37 | -8.00010 | 114.98818 | 15397 ft | 364 kts | 234° |
| 2026-05-05 03:37 | -8.01450 | 114.96710 | 15291 ft | 364 kts | 234° |
| 2026-05-05 03:38 | -8.02889 | 114.94605 | 15196 ft | 363 kts | 234° |
| 2026-05-05 03:38 | -8.04322 | 114.92507 | 15081 ft | 363 kts | 234° |
| 2026-05-05 03:38 | -8.05756 | 114.90407 | 14975 ft | 362 kts | 234° |
| 2026-05-05 03:38 | -8.07190 | 114.88307 | 14845 ft | 363 kts | 234° |
| 2026-05-05 03:39 | -8.08600 | 114.86241 | 14546 ft | 361 kts | 234° |
| 2026-05-05 03:39 | -8.10021 | 114.84158 | 14266 ft | 360 kts | 234° |
| 2026-05-05 03:39 | -8.11437 | 114.82082 | 14019 ft | 358 kts | 234° |
| 2026-05-05 03:39 | -8.12852 | 114.80008 | 13779 ft | 357 kts | 234° |
| 2026-05-05 03:40 | -8.14260 | 114.77945 | 13500 ft | 356 kts | 234° |
| 2026-05-05 03:40 | -8.15663 | 114.75889 | 13225 ft | 355 kts | 234° |
| 2026-05-05 03:40 | -8.17061 | 114.73839 | 12966 ft | 354 kts | 234° |
| 2026-05-05 03:40 | -8.18454 | 114.71795 | 12730 ft | 352 kts | 234° |
| 2026-05-05 03:41 | -8.19840 | 114.69762 | 12564 ft | 348 kts | 234° |
| 2026-05-05 03:41 | -8.21196 | 114.67773 | 12412 ft | 337 kts | 234° |
| 2026-05-05 03:41 | -8.22506 | 114.65857 | 12233 ft | 325 kts | 233° |
| 2026-05-05 03:41 | -8.23939 | 114.64175 | 12036 ft | 315 kts | 220° |
| 2026-05-05 03:42 | -8.25747 | 114.62982 | 11680 ft | 309 kts | 202° |
| 2026-05-05 03:42 | -8.27811 | 114.62443 | 11201 ft | 307 kts | 183° |
| 2026-05-05 03:42 | -8.29931 | 114.62600 | 10729 ft | 306 kts | 164° |
| 2026-05-05 03:42 | -8.31928 | 114.63308 | 10375 ft | 302 kts | 155° |
| 2026-05-05 03:43 | -8.33835 | 114.64142 | 10133 ft | 295 kts | 154° |
| 2026-05-05 03:43 | -8.35699 | 114.64973 | 9832 ft | 292 kts | 154° |
| 2026-05-05 03:43 | -8.37554 | 114.65797 | 9434 ft | 291 kts | 154° |
| 2026-05-05 03:43 | -8.39403 | 114.66611 | 9056 ft | 289 kts | 154° |
| 2026-05-05 03:44 | -8.41245 | 114.67419 | 8699 ft | 287 kts | 154° |
| 2026-05-05 03:44 | -8.43075 | 114.68219 | 8280 ft | 287 kts | 154° |
| 2026-05-05 03:44 | -8.44882 | 114.69008 | 7911 ft | 285 kts | 155° |
| 2026-05-05 03:44 | -8.46703 | 114.69802 | 7528 ft | 285 kts | 155° |
| 2026-05-05 03:45 | -8.48525 | 114.70595 | 7158 ft | 284 kts | 154° |
| 2026-05-05 03:45 | -8.50330 | 114.71382 | 6786 ft | 282 kts | 155° |
| 2026-05-05 03:45 | -8.52133 | 114.72167 | 6436 ft | 282 kts | 155° |
| 2026-05-05 03:45 | -8.53936 | 114.72954 | 6154 ft | 281 kts | 154° |
| 2026-05-05 03:46 | -8.55625 | 114.73929 | 5919 ft | 279 kts | 142° |
| 2026-05-05 03:46 | -8.57133 | 114.75153 | 5687 ft | 277 kts | 138° |
| 2026-05-05 03:46 | -8.58578 | 114.76407 | 5437 ft | 276 kts | 138° |
| 2026-05-05 03:46 | -8.60046 | 114.77693 | 5185 ft | 275 kts | 137° |
| 2026-05-05 03:47 | -8.61474 | 114.78940 | 4964 ft | 274 kts | 137° |
| 2026-05-05 03:47 | -8.62910 | 114.80188 | 4719 ft | 270 kts | 137° |
| 2026-05-05 03:47 | -8.64326 | 114.81418 | 4462 ft | 267 kts | 137° |
| 2026-05-05 03:47 | -8.65732 | 114.82639 | 4213 ft | 265 kts | 137° |
| 2026-05-05 03:48 | -8.67115 | 114.83839 | 3993 ft | 260 kts | 137° |
| 2026-05-05 03:48 | -8.68475 | 114.85017 | 3743 ft | 255 kts | 137° |
| 2026-05-05 03:48 | -8.69811 | 114.86174 | 3495 ft | 250 kts | 137° |
| 2026-05-05 03:48 | -8.71116 | 114.87307 | 3257 ft | 242 kts | 137° |
| 2026-05-05 03:49 | -8.72364 | 114.88387 | 3059 ft | 229 kts | 137° |
| 2026-05-05 03:49 | -8.73535 | 114.89398 | 3010 ft | 217 kts | 136° |
| 2026-05-05 03:49 | -8.74595 | 114.90444 | 3005 ft | 212 kts | 126° |
| 2026-05-05 03:49 | -8.75270 | 114.91677 | 2961 ft | 192 kts | 107° |
| 2026-05-05 03:50 | -8.75489 | 114.92961 | 2838 ft | 181 kts | 93° |
| 2026-05-05 03:50 | -8.75520 | 114.94218 | 2643 ft | 177 kts | 91° |
| 2026-05-05 03:50 | -8.75518 | 114.95467 | 2516 ft | 178 kts | 91° |
| 2026-05-05 03:50 | -8.75515 | 114.96727 | 2501 ft | 180 kts | 92° |
| 2026-05-05 03:51 | -8.75516 | 114.97982 | 2503 ft | 178 kts | 92° |
| 2026-05-05 03:51 | -8.75512 | 114.98813 | 2510 ft | 178 kts | 90° |
| 2026-05-05 03:51 | -8.75467 | 115.00453 | 2433 ft | 172 kts | 89° |
| 2026-05-05 03:51 | -8.75424 | 115.01624 | 2238 ft | 163 kts | 89° |
| 2026-05-05 03:52 | -8.75395 | 115.02391 | 2005 ft | 161 kts | 90° |
| 2026-05-05 03:52 | -8.75339 | 115.03859 | 1686 ft | 154 kts | 90° |
| 2026-05-05 03:52 | -8.75312 | 115.04580 | 1677 ft | 156 kts | 91° |
| 2026-05-05 03:52 | -8.75270 | 115.05672 | 1691 ft | 155 kts | 89° |
| 2026-05-05 03:53 | -8.75221 | 115.06758 | 1653 ft | 154 kts | 88° |
| 2026-05-05 03:53 | -8.75168 | 115.07869 | 1575 ft | 166 kts | 92° |
| 2026-05-05 03:53 | -8.75140 | 115.09053 | 1468 ft | 160 kts | 89° |
| 2026-05-05 03:53 | -8.75072 | 115.10118 | 1313 ft | 144 kts | 90° |
| 2026-05-05 03:54 | -8.75041 | 115.11094 | 1068 ft | 135 kts | 91° |
| 2026-05-05 03:54 | -8.75009 | 115.12034 | 803 ft | 133 kts | 91° |
| 2026-05-05 03:54 | -8.74967 | 115.13308 | 541 ft | 138 kts | 91° |
| 2026-05-05 03:54 | -8.74946 | 115.13969 | 409 ft | 142 kts | 90° |
| 2026-05-05 03:55 | -8.74906 | 115.14952 | 159 ft | 138 kts | 89° |
| 2026-05-05 03:55 | -8.74877 | 115.15897 | 34 ft | 127 kts | 88° |
| 2026-05-05 03:55 | -8.74848 | 115.16593 | 32 ft | 72 kts | 88° |
| 2026-05-05 03:55 | -8.74833 | 115.16984 | 32 ft | 48 kts | 88° |
| 2026-05-05 03:56 | -8.74817 | 115.17269 | 31 ft | 25 kts | 76° |
| 2026-05-05 03:56 | -8.74712 | 115.17316 | 34 ft | 15 kts | 357° |
| 2026-05-05 03:56 | -8.74616 | 115.17316 | 36 ft | 13 kts | 358° |
| 2026-05-05 03:56 | -8.74532 | 115.17313 | 37 ft | 1 kts | 357° |
| 2026-05-05 03:57 | -8.74524 | 115.17313 | 37 ft | 2 kts | 358° |
| 2026-05-05 03:57 | -8.74519 | 115.17312 | 37 ft | 0 kts | 358° |